createdAt,value
2022-09-12T00:00:38.475Z,98902.68
2022-09-12T00:01:42.734Z,98906.98
2022-09-12T00:02:46.992Z,98905.95
2022-09-12T00:03:51.245Z,98911.09
2022-09-12T00:04:55.496Z,98911.91
2022-09-12T00:05:58.594Z,98905.79
2022-09-12T00:07:02.865Z,98908.91
2022-09-12T00:08:06.064Z,98902.61
2022-09-12T00:09:08.528Z,98907.55
2022-09-12T00:10:11.693Z,98912.02
2022-09-12T00:11:14.183Z,98908.17
2022-09-12T00:12:16.641Z,98912.48
2022-09-12T00:13:19.090Z,98916.13
2022-09-12T00:14:21.536Z,98911.13
2022-09-12T00:15:23.974Z,98910.59
2022-09-12T00:16:26.792Z,98910.23
2022-09-12T00:17:29.286Z,98912.70
2022-09-12T00:18:31.732Z,98914.00
2022-09-12T00:19:34.187Z,98911.81
2022-09-12T00:20:36.824Z,98916.28
2022-09-12T00:21:39.511Z,98916.55
2022-09-12T00:22:41.957Z,98917.38
2022-09-12T00:23:44.409Z,98910.55
2022-09-12T00:24:46.850Z,98910.34
2022-09-12T00:25:49.295Z,98903.22
2022-09-12T00:26:51.876Z,98904.54
2022-09-12T00:27:54.341Z,98904.88
2022-09-12T00:28:56.782Z,98903.05
2022-09-12T00:29:59.223Z,98901.03
2022-09-12T00:31:01.967Z,98903.37
2022-09-12T00:32:04.687Z,98898.88
2022-09-12T00:33:07.133Z,98896.71
2022-09-12T00:34:09.579Z,98902.81
2022-09-12T00:35:12.028Z,98900.98
2022-09-12T00:36:15.896Z,98896.52
2022-09-12T00:37:18.368Z,98899.98
2022-09-12T00:38:20.812Z,98894.06
2022-09-12T00:39:23.277Z,98897.97
2022-09-12T00:40:26.637Z,98894.31
2022-09-12T00:41:29.288Z,98894.60
2022-09-12T00:42:31.763Z,98884.45
2022-09-12T00:43:34.320Z,98885.28
2022-09-12T00:44:36.768Z,98889.39
2022-09-12T00:45:39.265Z,98891.87
2022-09-12T00:46:41.981Z,98883.71
2022-09-12T00:47:44.690Z,98878.78
2022-09-12T00:48:47.185Z,98872.28
2022-09-12T00:49:49.689Z,98870.66
2022-09-12T00:50:52.331Z,98876.95
2022-09-12T00:51:54.770Z,98871.83
2022-09-12T00:52:57.247Z,98867.35
2022-09-12T00:53:59.691Z,98866.07
2022-09-12T00:55:02.143Z,98863.70
2022-09-12T00:56:04.788Z,98864.70
2022-09-12T00:57:07.233Z,98859.15
2022-09-12T00:58:09.701Z,98866.90
2022-09-12T00:59:12.194Z,98859.60
2022-09-12T01:00:15.763Z,98853.02
2022-09-12T01:01:18.470Z,98856.30
2022-09-12T01:02:21.459Z,98855.47
2022-09-12T01:03:23.923Z,98851.65
2022-09-12T01:04:26.363Z,98853.02
2022-09-12T01:05:29.106Z,98845.44
2022-09-12T01:06:32.359Z,98848.72
2022-09-12T01:07:39.306Z,98848.44
2022-09-12T01:08:39.186Z,98852.28
2022-09-12T01:09:41.623Z,98847.53
2022-09-12T01:10:44.266Z,98844.88
2022-09-12T01:11:46.708Z,98843.05
2022-09-12T01:12:49.152Z,98839.78
2022-09-12T01:13:51.627Z,98837.64
2022-09-12T01:14:54.078Z,98842.28
2022-09-12T01:15:56.526Z,98837.44
2022-09-12T01:16:59.076Z,98841.66
2022-09-12T01:18:01.519Z,98846.95
2022-09-12T01:19:04.009Z,98848.48
2022-09-12T01:20:06.651Z,98842.03
2022-09-12T01:21:09.092Z,98835.45
2022-09-12T01:22:11.839Z,98836.44
2022-09-12T01:23:14.484Z,98841.91
2022-09-12T01:24:16.959Z,98842.73
2022-09-12T01:25:19.400Z,98842.73
2022-09-12T01:26:22.553Z,98842.94
2022-09-12T01:27:25.000Z,98838.34
2022-09-12T01:28:27.445Z,98841.45
2022-09-12T01:29:29.946Z,98845.75
2022-09-12T01:30:32.547Z,98849.59
2022-09-12T01:31:34.990Z,98841.28
2022-09-12T01:32:37.430Z,98838.47
2022-09-12T01:33:39.874Z,98840.09
2022-09-12T01:34:42.352Z,98846.75
2022-09-12T01:35:44.806Z,98839.26
2022-09-12T01:36:47.351Z,98839.72
2022-09-12T01:37:49.791Z,98839.72
2022-09-12T01:38:52.236Z,98838.72
2022-09-12T01:39:54.738Z,98838.09
2022-09-12T01:40:57.754Z,98833.63
2022-09-12T01:42:00.393Z,98830.60
2022-09-12T01:43:02.839Z,98840.38
2022-09-12T01:44:05.276Z,98830.06
2022-09-12T01:45:07.746Z,98830.06
2022-09-12T01:46:11.095Z,98842.37
2022-09-12T01:47:13.516Z,98831.23
2022-09-12T01:48:15.955Z,98839.63
2022-09-12T01:49:18.400Z,98831.34
2022-09-12T01:50:21.180Z,98833.66
2022-09-12T01:51:23.622Z,98832.83
2022-09-12T01:52:26.678Z,98834.78
2022-09-12T01:53:29.124Z,98834.98
2022-09-12T01:54:31.562Z,98836.47
2022-09-12T01:55:34.053Z,98830.34
2022-09-12T01:56:36.796Z,98834.93
2022-09-12T01:57:39.262Z,98836.84
2022-09-12T01:58:41.749Z,98848.81
2022-09-12T01:59:44.251Z,98843.14
2022-09-12T02:00:46.957Z,98837.59
2022-09-12T02:01:49.459Z,98844.50
2022-09-12T02:02:52.186Z,98842.31
2022-09-12T02:03:54.631Z,98846.36
2022-09-12T02:04:57.068Z,98843.05
2022-09-12T02:05:59.536Z,98841.23
2022-09-12T02:07:02.286Z,98840.41
2022-09-12T02:08:04.726Z,98842.23
2022-09-12T02:09:07.169Z,98837.59
2022-09-12T02:10:10.307Z,98836.76
2022-09-12T02:11:12.795Z,98840.57
2022-09-12T02:12:15.238Z,98832.00
2022-09-12T02:13:17.684Z,98834.98
2022-09-12T02:14:20.117Z,98826.22
2022-09-12T02:15:22.565Z,98825.67
2022-09-12T02:16:26.124Z,98837.55
2022-09-12T02:17:28.606Z,98832.71
2022-09-12T02:18:31.042Z,98824.11
2022-09-12T02:19:33.473Z,98823.94
2022-09-12T02:20:51.284Z,98822.28
2022-09-12T02:21:40.625Z,98829.77
2022-09-12T02:22:43.266Z,98822.37
2022-09-12T02:23:45.702Z,98830.14
2022-09-12T02:24:48.139Z,98825.30
2022-09-12T02:25:50.855Z,98817.53
2022-09-12T02:26:53.619Z,98816.70
2022-09-12T02:27:56.057Z,98813.05
2022-09-12T02:28:58.525Z,98808.12
2022-09-12T02:30:00.959Z,98818.27
2022-09-12T02:31:03.442Z,98806.47
2022-09-12T02:32:05.960Z,98805.64
2022-09-12T02:33:08.420Z,98806.84
2022-09-12T02:34:10.870Z,98801.72
2022-09-12T02:35:13.312Z,98800.09
2022-09-12T02:36:16.455Z,98794.97
2022-09-12T02:37:18.976Z,98802.25
2022-09-12T02:38:21.411Z,98791.86
2022-09-12T02:39:23.859Z,98796.79
2022-09-12T02:40:26.513Z,98792.03
2022-09-12T02:41:29.150Z,98787.93
2022-09-12T02:42:31.971Z,98786.94
2022-09-12T02:43:34.405Z,98788.92
2022-09-12T02:44:36.902Z,98787.93
2022-09-12T02:45:39.376Z,98795.95
2022-09-12T02:46:42.180Z,98787.55
2022-09-12T02:47:44.657Z,98781.72
2022-09-12T02:48:47.202Z,98795.95
2022-09-12T02:49:49.657Z,98788.19
2022-09-12T02:50:52.197Z,98793.68
2022-09-12T02:51:54.636Z,98796.50
2022-09-12T02:52:57.202Z,98792.23
2022-09-12T02:53:59.656Z,98793.39
2022-09-12T02:55:02.098Z,98788.09
2022-09-12T02:56:04.633Z,98792.77
2022-09-12T02:57:07.370Z,98789.45
2022-09-12T02:58:10.190Z,98789.66
2022-09-12T02:59:12.630Z,98788.38
2022-09-12T03:00:16.587Z,98797.77
2022-09-12T03:01:19.289Z,98793.83
2022-09-12T03:02:22.017Z,98800.48
2022-09-12T03:03:24.598Z,98798.04
2022-09-12T03:04:27.046Z,98801.84
2022-09-12T03:05:29.480Z,98802.58
2022-09-12T03:06:32.311Z,98801.92
2022-09-12T03:07:34.753Z,98800.30
2022-09-12T03:08:37.218Z,98799.10
2022-09-12T03:09:39.651Z,98801.12
2022-09-12T03:10:42.305Z,98802.11
2022-09-12T03:11:44.770Z,98802.28
2022-09-12T03:12:47.203Z,98801.45
2022-09-12T03:13:49.686Z,98798.34
2022-09-12T03:14:52.121Z,98799.00
2022-09-12T03:15:54.616Z,98803.94
2022-09-12T03:16:57.463Z,98807.58
2022-09-12T03:17:59.901Z,98806.58
2022-09-12T03:19:02.374Z,98802.28
2022-09-12T03:20:05.123Z,98802.64
2022-09-12T03:21:07.669Z,98806.12
2022-09-12T03:22:10.506Z,98806.28
2022-09-12T03:23:12.944Z,98806.95
2022-09-12T03:24:15.423Z,98805.30
2022-09-12T03:25:17.878Z,98789.84
2022-09-12T03:26:20.522Z,98805.30
2022-09-12T03:27:23.748Z,98800.16
2022-09-12T03:28:26.249Z,98803.27
2022-09-12T03:29:28.710Z,98804.30
2022-09-12T03:30:33.114Z,98799.83
2022-09-12T03:31:35.628Z,98805.92
2022-09-12T03:32:38.159Z,98796.98
2022-09-12T03:33:40.588Z,98802.94
2022-09-12T03:34:43.283Z,98803.94
2022-09-12T03:35:45.722Z,98809.23
2022-09-12T03:36:48.466Z,98814.16
2022-09-12T03:37:50.901Z,98812.80
2022-09-12T03:38:53.349Z,98806.52
2022-09-12T03:39:55.850Z,98812.44
2022-09-12T03:40:58.640Z,98813.27
2022-09-12T03:42:01.182Z,98812.07
2022-09-12T03:43:03.624Z,98807.44
2022-09-12T03:44:06.255Z,98815.08
2022-09-12T03:45:08.818Z,98812.44
2022-09-12T03:46:11.565Z,98817.56
2022-09-12T03:47:13.999Z,98817.20
2022-09-12T03:48:16.440Z,98816.20
2022-09-12T03:49:18.876Z,98812.73
2022-09-12T03:50:23.165Z,98813.36
2022-09-12T03:51:25.610Z,98810.71
2022-09-12T03:52:28.055Z,98814.02
2022-09-12T03:53:30.514Z,98817.50
2022-09-12T03:54:32.947Z,98815.94
2022-09-12T03:55:35.412Z,98812.66
2022-09-12T03:56:38.255Z,98814.31
2022-09-12T03:57:40.894Z,98811.30
2022-09-12T03:58:43.333Z,98810.11
2022-09-12T03:59:46.174Z,98808.91
2022-09-12T04:00:48.967Z,98811.22
2022-09-12T04:01:51.610Z,98815.16
2022-09-12T04:02:54.234Z,98816.41
2022-09-12T04:03:56.667Z,98817.89
2022-09-12T04:04:59.141Z,98821.00
2022-09-12T04:06:01.627Z,98817.98
2022-09-12T04:07:04.058Z,98814.96
2022-09-12T04:08:06.495Z,98812.77
2022-09-12T04:09:08.930Z,98818.89
2022-09-12T04:10:12.101Z,98820.37
2022-09-12T04:11:14.577Z,98810.58
2022-09-12T04:12:17.027Z,98815.88
2022-09-12T04:13:19.457Z,98817.73
2022-09-12T04:14:21.905Z,98813.22
2022-09-12T04:15:24.340Z,98817.53
2022-09-12T04:16:27.249Z,98812.23
2022-09-12T04:17:29.764Z,98823.20
2022-09-12T04:18:32.207Z,98820.55
2022-09-12T04:19:34.655Z,98825.22
2022-09-12T04:20:37.195Z,98816.25
2022-09-12T04:21:39.694Z,98821.91
2022-09-12T04:22:42.239Z,98809.03
2022-09-12T04:23:44.676Z,98808.75
2022-09-12T04:24:47.122Z,98816.33
2022-09-12T04:25:49.561Z,98809.03
2022-09-12T04:26:52.355Z,98806.39
2022-09-12T04:27:54.797Z,98810.69
2022-09-12T04:28:57.242Z,98806.02
2022-09-12T04:29:59.690Z,98815.42
2022-09-12T04:31:02.157Z,98814.25
2022-09-12T04:32:04.640Z,98808.95
2022-09-12T04:33:08.193Z,98803.91
2022-09-12T04:34:11.054Z,98800.92
2022-09-12T04:35:13.503Z,98809.15
2022-09-12T04:36:16.345Z,98804.67
2022-09-12T04:37:18.822Z,98807.78
2022-09-12T04:38:21.292Z,98806.95
2022-09-12T04:39:24.238Z,98802.10
2022-09-12T04:40:26.992Z,98805.58
2022-09-12T04:41:29.634Z,98808.44
2022-09-12T04:42:32.269Z,98806.41
2022-09-12T04:43:34.710Z,98805.41
2022-09-12T04:44:37.182Z,98809.96
2022-09-12T04:45:40.358Z,98804.19
2022-09-12T04:46:42.972Z,98798.16
2022-09-12T04:47:45.457Z,98801.88
2022-09-12T04:48:47.939Z,98797.47
2022-09-12T04:49:50.348Z,98793.27
2022-09-12T04:50:53.087Z,98800.84
2022-09-12T04:51:55.734Z,98793.42
2022-09-12T04:52:58.214Z,98800.34
2022-09-12T04:54:00.655Z,98787.53
2022-09-12T04:55:03.101Z,98790.01
2022-09-12T04:56:05.848Z,98791.89
2022-09-12T04:57:08.301Z,98794.42
2022-09-12T04:58:10.775Z,98790.65
2022-09-12T04:59:13.218Z,98790.52
2022-09-12T05:00:15.871Z,98786.91
2022-09-12T05:01:18.857Z,98791.66
2022-09-12T05:02:21.595Z,98785.58
2022-09-12T05:03:24.271Z,98791.27
2022-09-12T05:04:26.720Z,98791.14
2022-09-12T05:05:29.173Z,98785.08
2022-09-12T05:06:32.540Z,98789.56
2022-09-12T05:07:34.977Z,98783.64
2022-09-12T05:08:37.576Z,98783.69
2022-09-12T05:09:40.016Z,98784.30
2022-09-12T05:10:42.868Z,98785.33
2022-09-12T05:12:49.774Z,98778.27
2022-09-12T05:13:52.252Z,98776.05
2022-09-12T05:14:54.691Z,98784.02
2022-09-12T05:15:57.135Z,98779.48
2022-09-12T05:17:00.174Z,98780.10
2022-09-12T05:18:02.830Z,98782.14
2022-09-12T05:19:05.311Z,98783.58
2022-09-12T05:20:08.160Z,98787.20
2022-09-12T05:21:10.802Z,98780.45
2022-09-12T05:22:13.443Z,98783.72
2022-09-12T05:23:16.112Z,98777.45
2022-09-12T05:24:18.781Z,98785.80
2022-09-12T05:25:21.730Z,98779.88
2022-09-12T05:26:25.971Z,98780.63
2022-09-12T05:27:28.443Z,98787.59
2022-09-12T05:28:30.996Z,98776.41
2022-09-12T05:29:33.466Z,98776.58
2022-09-12T05:30:36.147Z,98789.56
2022-09-12T05:31:38.756Z,98790.31
2022-09-12T05:32:41.193Z,98792.43
2022-09-12T05:33:43.654Z,98790.25
2022-09-12T05:34:46.119Z,98791.52
2022-09-12T05:35:48.563Z,98790.50
2022-09-12T05:36:51.122Z,98791.80
2022-09-12T05:37:53.565Z,98787.78
2022-09-12T05:38:56.009Z,98788.36
2022-09-12T05:39:58.525Z,98787.14
2022-09-12T05:41:01.141Z,98787.05
2022-09-12T05:42:04.189Z,98780.36
2022-09-12T05:43:07.136Z,98777.33
2022-09-12T05:44:09.585Z,98772.67
2022-09-12T05:45:12.083Z,98775.29
2022-09-12T05:46:16.332Z,98768.44
2022-09-12T05:47:18.794Z,98767.88
2022-09-12T05:48:21.234Z,98775.55
2022-09-12T05:49:23.705Z,98770.21
2022-09-12T05:50:27.705Z,98773.31
2022-09-12T05:51:30.146Z,98770.46
2022-09-12T05:52:32.635Z,98773.55
2022-09-12T05:53:35.085Z,98770.28
2022-09-12T05:54:37.539Z,98768.66
2022-09-12T05:55:40.017Z,98769.68
2022-09-12T05:56:42.761Z,98771.33
2022-09-12T05:57:45.203Z,98770.53
2022-09-12T05:58:47.742Z,98763.14
2022-09-12T05:59:50.185Z,98767.05
2022-09-12T06:00:52.859Z,98760.70
2022-09-12T06:01:55.844Z,98761.50
2022-09-12T06:02:58.359Z,98769.30
2022-09-12T06:04:00.886Z,98758.45
2022-09-12T06:05:03.381Z,98750.41
2022-09-12T06:06:06.252Z,98760.20
2022-09-12T06:07:08.818Z,98756.25
2022-09-12T06:08:11.276Z,98751.11
2022-09-12T06:09:13.726Z,98749.81
2022-09-12T06:10:16.873Z,98757.98
2022-09-12T06:11:19.343Z,98755.89
2022-09-12T06:12:21.784Z,98760.80
2022-09-12T06:13:24.230Z,98756.72
2022-09-12T06:14:26.665Z,98755.88
2022-09-12T06:15:29.104Z,98755.88
2022-09-12T06:16:32.006Z,98763.25
2022-09-12T06:17:34.525Z,98759.70
2022-09-12T06:18:36.974Z,98754.50
2022-09-12T06:19:39.863Z,98754.52
2022-09-12T06:20:42.615Z,98756.98
2022-09-12T06:21:45.298Z,98753.67
2022-09-12T06:22:47.940Z,98756.23
2022-09-12T06:23:50.405Z,98756.36
2022-09-12T06:24:57.773Z,98754.77
2022-09-12T06:25:57.526Z,98755.59
2022-09-12T06:27:00.196Z,98751.52
2022-09-12T06:28:02.644Z,98754.19
2022-09-12T06:29:05.086Z,98759.29
2022-09-12T06:30:07.833Z,98756.80
2022-09-12T06:31:10.277Z,98757.37
2022-09-12T06:32:12.852Z,98756.94
2022-09-12T06:33:15.291Z,98765.10
2022-09-12T06:34:17.730Z,98762.27
2022-09-12T06:35:20.174Z,98757.48
2022-09-12T06:36:23.626Z,98761.16
2022-09-12T06:37:26.088Z,98759.47
2022-09-12T06:38:28.545Z,98768.09
2022-09-12T06:39:30.989Z,98759.47
2022-09-12T06:40:33.637Z,98765.63
2022-09-12T06:41:39.336Z,98757.86
2022-09-12T06:42:40.867Z,98761.22
2022-09-12T06:43:43.304Z,98762.72
2022-09-12T06:44:45.746Z,98758.09
2022-09-12T06:45:48.211Z,98755.66
2022-09-12T06:46:50.916Z,98767.31
2022-09-12T06:47:53.395Z,98765.86
2022-09-12T06:48:55.833Z,98773.00
2022-09-12T06:49:58.263Z,98773.75
2022-09-12T06:51:01.002Z,98770.65
2022-09-12T06:52:03.439Z,98773.55
2022-09-12T06:53:05.919Z,98776.01
2022-09-12T06:54:08.362Z,98775.97
2022-09-12T06:55:10.798Z,98774.66
2022-09-12T06:56:13.647Z,98773.01
2022-09-12T06:57:16.078Z,98770.34
2022-09-12T06:58:18.545Z,98773.20
2022-09-12T06:59:20.998Z,98774.22
2022-09-12T07:00:24.040Z,98776.30
2022-09-12T07:01:27.063Z,98781.20
2022-09-12T07:02:29.733Z,98777.28
2022-09-12T07:03:32.432Z,98785.91
2022-09-12T07:04:34.869Z,98780.38
2022-09-12T07:05:37.314Z,98787.43
2022-09-12T07:06:40.357Z,98776.17
2022-09-12T07:07:43.003Z,98778.21
2022-09-12T07:08:45.785Z,98776.98
2022-09-12T07:09:48.526Z,98773.01
2022-09-12T07:10:51.370Z,98776.53
2022-09-12T07:11:53.816Z,98776.89
2022-09-12T07:12:56.250Z,98779.55
2022-09-12T07:13:58.713Z,98774.84
2022-09-12T07:15:01.154Z,98780.22
2022-09-12T07:16:03.789Z,98785.16
2022-09-12T07:17:06.310Z,98781.67
2022-09-12T07:18:08.798Z,98792.11
2022-09-12T07:19:11.274Z,98784.42
2022-09-12T07:20:14.115Z,98776.77
2022-09-12T07:21:16.860Z,98785.72
2022-09-12T07:22:19.497Z,98777.95
2022-09-12T07:23:22.251Z,98774.03
2022-09-12T07:24:24.716Z,98764.53
2022-09-12T07:25:27.157Z,98775.62
2022-09-12T07:26:29.815Z,98766.94
2022-09-12T07:27:32.294Z,98771.06
2022-09-12T07:28:34.729Z,98767.45
2022-09-12T07:29:38.035Z,98767.80
2022-09-12T07:30:41.279Z,98767.10
2022-09-12T07:31:43.802Z,98773.27
2022-09-12T07:32:46.238Z,98766.80
2022-09-12T07:33:52.472Z,98775.33
2022-09-12T07:34:53.081Z,98769.42
2022-09-12T07:35:55.552Z,98765.86
2022-09-12T07:36:58.103Z,98762.45
2022-09-12T07:38:00.742Z,98761.12
2022-09-12T07:39:03.175Z,98762.22
2022-09-12T07:40:05.885Z,98764.89
2022-09-12T07:41:08.397Z,98768.02
2022-09-12T07:42:11.059Z,98763.91
2022-09-12T07:43:13.501Z,98772.70
2022-09-12T07:44:15.951Z,98769.13
2022-09-12T07:45:18.409Z,98768.48
2022-09-12T07:46:21.448Z,98775.08
2022-09-12T07:47:23.888Z,98766.80
2022-09-12T07:48:28.357Z,98770.20
2022-09-12T07:49:30.679Z,98766.54
2022-09-12T07:50:34.089Z,98768.81
2022-09-12T07:51:36.534Z,98766.64
2022-09-12T07:52:38.985Z,98762.83
2022-09-12T07:53:41.428Z,98768.08
2022-09-12T07:54:43.863Z,98759.54
2022-09-12T07:55:46.345Z,98764.26
2022-09-12T07:56:49.085Z,98767.05
2022-09-12T07:57:51.584Z,98764.50
2022-09-12T07:58:54.035Z,98773.54
2022-09-12T07:59:56.475Z,98771.30
2022-09-12T08:00:59.285Z,98762.95
2022-09-12T08:02:01.830Z,98770.22
2022-09-12T08:03:04.825Z,98776.68
2022-09-12T08:04:07.266Z,98763.03
2022-09-12T08:05:09.697Z,98764.50
2022-09-12T08:06:14.037Z,98762.22
2022-09-12T08:07:16.769Z,98760.88
2022-09-12T08:08:19.209Z,98759.02
2022-09-12T08:09:21.642Z,98758.91
2022-09-12T08:10:24.780Z,98765.45
2022-09-12T08:11:27.355Z,98764.97
2022-09-12T08:12:30.139Z,98762.53
2022-09-12T08:13:32.578Z,98764.03
2022-09-12T08:14:35.018Z,98762.52
2022-09-12T08:15:37.487Z,98761.23
2022-09-12T08:16:40.423Z,98764.15
2022-09-12T08:17:43.062Z,98764.88
2022-09-12T08:18:45.531Z,98762.62
2022-09-12T08:19:47.976Z,98753.06
2022-09-12T08:20:50.509Z,98757.43
2022-09-12T08:21:53.012Z,98762.30
2022-09-12T08:22:55.545Z,98763.11
2022-09-12T08:23:57.994Z,98760.29
2022-09-12T08:25:00.426Z,98767.00
2022-09-12T08:26:06.163Z,98765.50
2022-09-12T08:27:07.804Z,98763.40
2022-09-12T08:28:10.244Z,98758.19
2022-09-12T08:29:12.699Z,98762.97
2022-09-12T08:30:15.748Z,98762.72
2022-09-12T08:31:18.179Z,98750.72
2022-09-12T08:32:20.649Z,98753.97
2022-09-12T08:33:23.089Z,98745.80
2022-09-12T08:34:25.524Z,98750.57
2022-09-12T08:35:27.963Z,98736.55
2022-09-12T08:36:30.803Z,98743.27
2022-09-12T08:37:33.291Z,98748.72
2022-09-12T08:38:35.733Z,98749.95
2022-09-12T08:39:38.206Z,98745.94
2022-09-12T08:40:40.907Z,98751.30
2022-09-12T08:41:43.545Z,98752.42
2022-09-12T08:42:46.331Z,98748.02
2022-09-12T08:43:51.979Z,98748.61
2022-09-12T08:44:53.146Z,98754.58
2022-09-12T08:45:55.624Z,98748.31
2022-09-12T08:46:58.140Z,98749.05
2022-09-12T08:48:00.609Z,98749.50
2022-09-12T08:49:03.049Z,98758.29
2022-09-12T08:50:05.897Z,98749.06
2022-09-12T08:51:08.337Z,98751.29
2022-09-12T08:52:10.793Z,98751.66
2022-09-12T08:53:13.266Z,98753.75
2022-09-12T08:54:15.718Z,98752.18
2022-09-12T08:55:18.164Z,98749.50
2022-09-12T08:56:21.311Z,98753.88
2022-09-12T08:57:23.753Z,98753.30
2022-09-12T08:58:26.236Z,98749.48
2022-09-12T08:59:28.716Z,98746.67
2022-09-12T09:00:31.980Z,98753.66
2022-09-12T09:01:34.659Z,98745.64
2022-09-12T09:02:37.218Z,98744.47
2022-09-12T09:03:39.747Z,98751.91
2022-09-12T09:04:42.190Z,98739.80
2022-09-12T09:05:44.635Z,98743.85
2022-09-12T09:06:47.388Z,98742.08
2022-09-12T09:07:49.828Z,98739.77
2022-09-12T09:08:52.314Z,98736.64
2022-09-12T09:09:54.899Z,98740.59
2022-09-12T09:10:58.003Z,98732.80
2022-09-12T09:12:00.444Z,98737.55
2022-09-12T09:13:02.903Z,98730.77
2022-09-12T09:14:05.628Z,98736.42
2022-09-12T09:15:09.857Z,98734.77
2022-09-12T09:16:12.955Z,98734.61
2022-09-12T09:17:15.440Z,98735.03
2022-09-12T09:18:17.886Z,98738.47
2022-09-12T09:19:20.373Z,98734.77
2022-09-12T09:20:23.224Z,98737.60
2022-09-12T09:21:25.966Z,98731.36
2022-09-12T09:22:28.412Z,98732.86
2022-09-12T09:23:30.958Z,98729.47
2022-09-12T09:24:33.842Z,98734.40
2022-09-12T09:25:36.603Z,98735.19
2022-09-12T09:26:39.243Z,98730.03
2022-09-12T09:27:41.883Z,98738.85
2022-09-12T09:28:44.633Z,98735.23
2022-09-12T09:29:47.116Z,98741.78
2022-09-12T09:30:50.030Z,98746.06
2022-09-12T09:31:52.622Z,98745.43
2022-09-12T09:32:55.209Z,98745.34
2022-09-12T09:33:57.652Z,98749.66
2022-09-12T09:35:00.127Z,98751.37
2022-09-12T09:36:02.683Z,98761.61
2022-09-12T09:37:05.126Z,98749.36
2022-09-12T09:38:07.570Z,98764.78
2022-09-12T09:39:10.104Z,98761.39
2022-09-12T09:40:13.255Z,98762.17
2022-09-12T09:41:16.343Z,98753.92
2022-09-12T09:42:18.998Z,98756.21
2022-09-12T09:43:21.744Z,98755.16
2022-09-12T09:44:24.360Z,98752.98
2022-09-12T09:45:27.042Z,98761.58
2022-09-12T09:46:29.775Z,98754.07
2022-09-12T09:47:32.431Z,98757.30
2022-09-12T09:48:34.897Z,98755.85
2022-09-12T09:49:37.347Z,98756.63
2022-09-12T09:50:40.126Z,98757.88
2022-09-12T09:51:42.565Z,98752.92
2022-09-12T09:52:45.013Z,98755.39
2022-09-12T09:53:47.464Z,98755.65
2022-09-12T09:54:49.909Z,98758.32
2022-09-12T09:55:52.392Z,98759.58
2022-09-12T09:56:55.437Z,98756.09
2022-09-12T09:57:57.885Z,98766.45
2022-09-12T09:59:00.324Z,98759.59
2022-09-12T10:00:02.893Z,98759.83
2022-09-12T10:01:05.425Z,98757.98
2022-09-12T10:02:08.015Z,98766.37
2022-09-12T10:03:13.805Z,98753.94
2022-09-12T10:04:15.617Z,98760.30
2022-09-12T10:05:18.071Z,98756.84
2022-09-12T10:06:20.762Z,98762.60
2022-09-12T10:07:23.203Z,98760.09
2022-09-12T10:08:25.645Z,98763.59
2022-09-12T10:09:28.415Z,98761.16
2022-09-12T10:10:31.081Z,98760.95
2022-09-12T10:11:33.567Z,98761.75
2022-09-12T10:12:36.010Z,98762.17
2022-09-12T10:13:38.462Z,98756.88
2022-09-12T10:14:40.908Z,98762.20
2022-09-12T10:15:43.595Z,98761.78
2022-09-12T10:16:46.545Z,98761.35
2022-09-12T10:17:48.985Z,98766.26
2022-09-12T10:18:51.429Z,98756.45
2022-09-12T10:20:17.308Z,98768.77
2022-09-12T10:20:58.437Z,98766.69
2022-09-12T10:22:01.122Z,98771.63
2022-09-12T10:23:03.560Z,98772.41
2022-09-12T10:24:06.004Z,98772.18
2022-09-12T10:25:08.457Z,98774.22
2022-09-12T10:26:11.406Z,98774.84
2022-09-12T10:27:13.871Z,98775.23
2022-09-12T10:28:16.310Z,98772.97
2022-09-12T10:29:18.752Z,98778.50
2022-09-12T10:30:23.007Z,98779.95
2022-09-12T10:31:25.672Z,98780.14
2022-09-12T10:32:30.850Z,98779.95
2022-09-12T12:20:34.385Z,98770.14
2022-09-12T12:22:47.293Z,98781.05
2022-09-12T12:23:49.785Z,98778.97
2022-09-12T12:24:52.227Z,98776.36
2022-09-12T12:25:54.707Z,98774.11
2022-09-12T12:26:57.589Z,98778.39
2022-09-12T12:28:00.038Z,98778.25
2022-09-12T12:29:02.473Z,98779.69
2022-09-12T12:30:05.351Z,98782.58
2022-09-12T12:31:07.871Z,98785.66
2022-09-12T12:32:10.294Z,98782.58
2022-09-12T12:33:12.734Z,98787.52
2022-09-12T12:34:15.204Z,98776.67
2022-09-12T12:35:17.661Z,98783.22
2022-09-12T12:36:20.449Z,98786.91
2022-09-12T12:37:22.893Z,98781.78
2022-09-12T12:38:25.345Z,98785.27
2022-09-12T12:39:27.795Z,98791.41
2022-09-12T12:40:30.437Z,98793.28
2022-09-12T12:41:33.116Z,98785.90
2022-09-12T12:42:35.783Z,98783.23
2022-09-12T12:43:38.212Z,98785.69
2022-09-12T12:44:40.860Z,98784.45
2022-09-12T12:45:43.307Z,98790.39
2022-09-12T12:46:45.922Z,98784.87
2022-09-12T12:47:48.564Z,98793.89
2022-09-12T12:48:51.031Z,98794.09
2022-09-12T12:49:53.574Z,98793.45
2022-09-12T12:50:56.219Z,98802.25
2022-09-12T12:51:58.688Z,98794.70
2022-09-12T12:53:01.331Z,98791.44
2022-09-12T12:54:03.780Z,98806.20
2022-09-12T12:55:06.504Z,98809.08
2022-09-12T12:56:09.263Z,98801.29
2022-09-12T12:57:11.743Z,98811.53
2022-09-12T12:58:14.208Z,98801.68
2022-09-12T12:59:16.654Z,98803.92
2022-09-12T13:00:20.950Z,98805.99
2022-09-12T13:01:23.921Z,98806.20
2022-09-12T13:02:26.527Z,98801.29
2022-09-12T13:03:29.210Z,98807.39
2022-09-12T13:04:31.712Z,98808.23
2022-09-12T13:05:34.155Z,98803.72
2022-09-12T13:06:36.912Z,98807.41
2022-09-12T13:07:39.388Z,98807.83
2022-09-12T13:08:41.825Z,98802.28
2022-09-12T13:09:44.284Z,98796.13
2022-09-12T13:10:48.534Z,98788.55
2022-09-12T13:11:51.237Z,98796.76
2022-09-12T13:12:53.727Z,98791.44
2022-09-12T13:13:56.490Z,98796.54
2022-09-12T13:14:58.938Z,98795.52
2022-09-12T13:16:01.410Z,98801.06
2022-09-12T13:17:03.924Z,98796.13
2022-09-12T13:18:06.458Z,98795.52
2022-09-12T13:19:08.940Z,98789.79
2022-09-12T13:20:27.185Z,98792.87
2022-09-12T13:21:16.457Z,98791.01
2022-09-12T13:22:19.427Z,98790.17
2022-09-12T13:23:22.530Z,98782.19
2022-09-12T13:24:24.992Z,98788.75
2022-09-12T13:25:27.734Z,98785.67
2022-09-12T13:26:30.701Z,98789.80
2022-09-12T13:27:33.140Z,98793.06
2022-09-12T13:28:35.685Z,98780.56
2022-09-12T13:29:38.190Z,98781.17
2022-09-12T13:30:41.169Z,98779.14
2022-09-12T13:31:47.205Z,98776.66
2022-09-12T13:32:48.268Z,98783.03
2022-09-12T13:33:50.774Z,98770.94
2022-09-12T13:34:53.320Z,98776.67
2022-09-12T13:35:55.769Z,98773.38
2022-09-12T13:36:58.607Z,98774.02
2022-09-12T13:38:01.057Z,98769.11
2022-09-12T13:39:03.599Z,98767.67
2022-09-12T13:40:06.296Z,98766.23
2022-09-12T13:41:09.272Z,98763.35
2022-09-12T13:42:11.719Z,98772.15
2022-09-12T13:43:14.164Z,98764.34
2022-09-12T13:44:16.670Z,98773.78
2022-09-12T13:45:19.167Z,98776.88
2022-09-12T13:46:22.152Z,98763.95
2022-09-12T13:47:24.658Z,98765.79
2022-09-12T13:48:27.130Z,98769.91
2022-09-12T13:49:29.600Z,98761.48
2022-09-12T13:50:32.968Z,98763.53
2022-09-12T13:51:35.422Z,98764.76
2022-09-12T13:52:37.863Z,98760.25
2022-09-12T13:53:40.318Z,98764.53
2022-09-12T13:54:42.901Z,98764.76
2022-09-12T13:55:45.370Z,98763.31
2022-09-12T13:56:48.124Z,98766.58
2022-09-12T13:57:50.679Z,98766.15
2022-09-12T13:58:53.118Z,98754.09
2022-09-12T13:59:55.597Z,98760.47
2022-09-12T14:00:58.451Z,98756.13
2022-09-12T14:02:00.952Z,98753.27
2022-09-12T14:03:03.772Z,98762.52
2022-09-12T14:04:06.210Z,98756.13
2022-09-12T14:05:08.698Z,98757.78